createdAt,value
2023-01-29T00:01:45.113Z,11.70
2023-01-29T00:16:50.401Z,11.00
2023-01-29T00:31:55.045Z,10.00
2023-01-29T00:47:00.279Z,9.80
2023-01-29T01:02:24.206Z,12.20
2023-01-29T01:17:28.666Z,11.67
2023-01-29T01:32:33.764Z,9.63
2023-01-29T01:47:44.585Z,11.20
2023-01-29T02:03:09.245Z,10.97
2023-01-29T02:18:15.125Z,9.20
2023-01-29T02:33:44.091Z,9.07
2023-01-29T02:48:56.542Z,11.30
2023-01-29T03:04:12.628Z,9.83
2023-01-29T03:19:20.765Z,7.57
2023-01-29T03:34:29.429Z,6.60
2023-01-29T03:49:36.883Z,6.30
2023-01-29T04:04:43.816Z,6.20
2023-01-29T04:19:49.501Z,5.90
2023-01-29T04:35:02.743Z,5.50
2023-01-29T04:50:15.390Z,5.80
2023-01-29T05:05:21.008Z,6.53
2023-01-29T05:20:24.897Z,6.50
2023-01-29T05:35:30.163Z,5.20
2023-01-29T05:50:34.801Z,6.73
2023-01-29T06:05:39.967Z,5.87
2023-01-29T06:20:44.633Z,6.90
2023-01-29T06:35:48.982Z,7.83
2023-01-29T06:50:55.901Z,12.57
2023-01-29T07:06:01.130Z,7.07
2023-01-29T07:21:07.766Z,9.13
2023-01-29T07:36:12.957Z,13.53
2023-01-29T07:51:20.168Z,12.13
2023-01-29T08:06:24.530Z,13.30
2023-01-29T08:21:28.776Z,8.63
2023-01-29T08:36:33.448Z,8.87
2023-01-29T08:51:38.255Z,11.10
2023-01-29T09:06:42.843Z,14.03
2023-01-29T09:21:47.823Z,13.70
2023-01-29T09:36:54.165Z,13.90
2023-01-29T09:52:03.742Z,13.33
2023-01-29T10:07:17.524Z,15.17
2023-01-29T10:22:30.935Z,15.13
2023-01-29T10:37:42.883Z,14.57
2023-01-29T10:53:04.985Z,20.20
2023-01-29T11:08:13.753Z,37.90
2023-01-29T11:23:28.362Z,45.63
2023-01-29T11:38:33.357Z,20.90
2023-01-29T11:53:40.311Z,19.43
2023-01-29T12:08:44.623Z,17.77
2023-01-29T12:23:53.370Z,19.77
2023-01-29T12:38:57.719Z,15.33
2023-01-29T12:54:04.528Z,19.63
2023-01-29T13:09:11.752Z,18.53
2023-01-29T13:24:20.727Z,15.90
2023-01-29T13:39:34.836Z,15.40
2023-01-29T13:54:39.631Z,14.20
2023-01-29T14:09:49.818Z,17.57
2023-01-29T14:24:57.870Z,17.67
2023-01-29T14:40:13.655Z,19.87
2023-01-29T14:55:32.643Z,19.50
2023-01-29T15:11:13.525Z,23.30
2023-01-29T15:26:21.863Z,20.13
2023-01-29T15:41:26.156Z,28.03
2023-01-29T15:56:35.237Z,21.77
2023-01-29T16:11:41.317Z,23.93
2023-01-29T16:26:48.810Z,25.47
2023-01-29T16:42:11.652Z,25.13
2023-01-29T16:57:19.228Z,20.07
2023-01-29T17:12:27.035Z,21.43
2023-01-29T17:27:31.706Z,27.10
2023-01-29T17:42:36.946Z,23.13
2023-01-29T17:57:41.206Z,23.43
2023-01-29T18:12:45.281Z,22.00
2023-01-29T18:27:49.637Z,18.30
2023-01-29T18:42:53.547Z,21.80
2023-01-29T18:58:31.504Z,20.00
2023-01-29T19:13:24.567Z,22.00
2023-01-29T19:28:29.004Z,23.83
2023-01-29T19:43:33.783Z,18.20
2023-01-29T19:58:38.520Z,22.20
2023-01-29T20:13:42.668Z,24.73
2023-01-29T20:28:48.456Z,24.63
2023-01-29T20:43:52.903Z,23.80
2023-01-29T20:58:58.564Z,26.90
2023-01-29T21:14:03.246Z,25.13
2023-01-29T21:29:08.215Z,14.70
2023-01-29T21:44:13.799Z,12.30
2023-01-29T21:59:18.479Z,18.00
2023-01-29T22:14:22.766Z,17.80
2023-01-29T22:29:27.210Z,19.33
2023-01-29T22:44:31.732Z,21.60
2023-01-29T22:59:35.961Z,15.80
2023-01-29T23:14:40.425Z,16.23
2023-01-29T23:29:45.307Z,15.00
2023-01-29T23:44:49.855Z,19.87
2023-01-29T23:59:54.139Z,13.17
